Tropical Cyclones
[Index]
Main Index Home Page Stock Weather Photos Extreme Storms Discussion Storm News and Storm Chasing Reports Tropical Cyclones / Hurricanes / Typhoons Weather Data and Links Wild Fires / Bushfires Weather Observation Techniques Weather Picture Catalogue Tornado Pictures and Reports Stock Video Footage and DVDs for sale
Season 2006-2007 Tropical Cyclone NELSON Track Map
Season 2006-2007 Summaries: [BoM-AU] [JTWC-AU] [JTWC-SIO] [JTWC-SPAC] [JTWC-SH]
<<- Previous TC | JTWC 2006-2007 Season | Next TC ->>

click for intensity scale information  Lat/long Grid: Show Hide

 Date Labels: Show Hide

Joint Typhoon Warning Centre Cyclone Data

Name: NELSON

02 Feb 2007 18:00 UTC to 07 Feb 2007 06:00 UTC

    date/time    lat    long     hPa   cat  kts
2007-02-02 18   14.8   138.3    1000         30          
2007-02-03 00   14.9   138.0    1000         30          
2007-02-03 06   15.0   137.8    1002         25          
2007-02-03 12   15.1   137.6    1002         25          
2007-02-03 18   15.3   137.5    1002         25          
2007-02-04 00   15.5   137.5    1002         25          
2007-02-04 06   15.6   137.5    1002         25          
2007-02-04 12   15.8   137.5    1002         25          
2007-02-04 18   16.0   137.6    1002         25          
2007-02-05 00   16.2   137.8    1002         25          
2007-02-05 06   16.2   138.2     997         25          
2007-02-05 12   16.1   138.6    1002         25          
2007-02-05 18   15.9   139.0     998         30          
2007-02-06 00   15.8   139.5     997         35          
2007-02-06 06   16.0   140.3     996         35          
2007-02-06 12   16.2   140.9     991    1    45          
2007-02-06 18   16.4   141.3     987    1    50          
2007-02-07 00   16.5   141.7     997         35          
2007-02-07 06   16.6   141.9    1002         25          
Winds are 1-min average.

Tropical cyclone tracks developed by Michael Bath using data from the Joint Typhoon Warning Centre Best Tracks and Google Maps.


[Australian Severe Weather index] [Copyright Notice] [Email Contacts] [Search This Site] [Privacy Policy]
Document: tropical_cyclone_nelson.htm Updated: 28 June 2017